Thursday, March 21, 2019, 4:19 PM EDT
Back to Local

KMHT, Manchester Airport

Location: Manchester, NH, United States Lat: 42.933
Local Time: 4:19 PM EDT (20:19 GMT) Lon: -71.433
Time Zone: US/Eastern Elev: 232 ft

Show me the last for .
Show Decoded

2019-03-21 15:53 METAR KMHT 211953Z 19011G17KT 10SM BKN055 OVC075 10/M04 A3005 RMK AO2 SLP192
                 T01001044 =
2019-03-21 14:53 METAR KMHT 211853Z 19014KT 10SM SCT050 BKN080 OVC200 10/M04 A3005 RMK AO2 SLP192
                 T01001044 =
2019-03-21 13:53 METAR KMHT 211753Z 19012KT 10SM OVC055 09/M05 A3010 RMK AO2 SLP208 T00941050
                 10100 20011 56029 =
2019-03-21 12:53 METAR KMHT 211653Z 19009KT 10SM OVC050 09/M04 A3012 RMK AO2 SLP216 T00891044 =
2019-03-21 11:53 METAR KMHT 211553Z 16009KT 10SM BKN055 OVC110 09/M05 A3014 RMK AO2 SLP222
                 T00891050 =
2019-03-21 10:53 METAR KMHT 211453Z 18011KT 10SM BKN050 OVC100 07/M03 A3019 RMK AO2 SLP237
                 T00721028 56013 =
2019-03-21 09:53 METAR KMHT 211353Z 20011KT 10SM BKN055 BKN100 06/M03 A3019 RMK AO2 SLP237
                 T00561028 =
2019-03-21 08:53 METAR KMHT 211253Z 20006KT 10SM BKN055 BKN120 03/M02 A3021 RMK AO2 SLP245
                 T00331022 =
2019-03-21 07:53 METAR KMHT 211153Z VRB03KT 10SM SCT055 BKN120 BKN200 01/M03 A3022 RMK AO2 SLP251
                 T00111028 10033 21006 56001 =
2019-03-21 06:53 METAR KMHT 211053Z 00000KT 10SM FEW100 BKN150 BKN250 M01/M04 A3023 RMK AO2
                 SLP254 T10061039 =
2019-03-21 05:53 METAR KMHT 210953Z 15005KT 10SM SCT150 BKN250 01/M03 A3022 RMK AO2 SLP248
                 T00111028 =
2019-03-21 04:53 METAR KMHT 210853Z 21003KT 10SM SCT150 OVC250 02/M03 A3023 RMK AO2 SLP251
                 T00171028 56011 =
2019-03-21 03:53 METAR KMHT 210753Z 15005KT 10SM BKN250 02/M03 A3023 RMK AO2 SLP252 T00171033 =
2019-03-21 02:53 METAR KMHT 210653Z 17006KT 10SM BKN250 03/M04 A3024 RMK AO2 SLP257 T00281044 =
2019-03-21 01:53 METAR KMHT 210553Z 18005KT 10SM OVC250 03/M06 A3026 RMK AO2 SLP263 T00331056
                 10072 20028 55001 =
2019-03-21 00:53 METAR KMHT 210453Z 16007KT 10SM BKN250 04/M07 A3025 RMK AO2 SLP260 T00391067
                 401171061 =
2019-03-20 23:53 METAR KMHT 210353Z 18007KT 10SM SCT250 04/M07 A3026 RMK AO2 SLP263 T00441072 =
2019-03-20 22:53 METAR KMHT 210253Z 19008KT 10SM FEW250 06/M07 A3026 RMK AO2 SLP264 T00561072
                 51011 =
2019-03-20 21:53 METAR KMHT 210153Z 19010KT 10SM FEW250 07/M06 A3025 RMK AO2 SLP262 T00671061 =
2019-03-20 20:53 METAR KMHT 210053Z 17009KT 10SM CLR 07/M03 A3024 RMK AO2 SLP258 T00671033 =
2019-03-20 19:53 METAR KMHT 202353Z 14010KT 10SM CLR 07/M05 A3023 RMK AO2 SLP254 T00721050 10117
                 20072 53001 =
2019-03-20 18:53 METAR KMHT 202253Z 13009KT 10SM FEW250 08/M07 A3022 RMK AO2 SLP252 T00831072 =
2019-03-20 17:53 METAR KMHT 202153Z 21007KT 10SM FEW075 11/M09 A3021 RMK AO2 SLP249 T01111094 =
2019-03-20 16:53 METAR KMHT 202053Z VRB03KT 10SM FEW075 11/M10 A3023 RMK AO2 SLP253 T01111100
                 56019 =

Support USWX by starting your Amazon purchase here.